sensor_id;sensor_type;location;lat;lon;timestamp;P1;durP1;ratioP1;P2;durP2;ratioP2
16228;SDS011;8222;51.462;12.630;2022-07-15T00:00:41;1.00;;;0.90;;
16228;SDS011;8222;51.462;12.630;2022-07-15T00:03:06;1.50;;;0.85;;
16228;SDS011;8222;51.462;12.630;2022-07-15T00:05:32;2.70;;;1.13;;
16228;SDS011;8222;51.462;12.630;2022-07-15T00:07:59;1.42;;;1.10;;
16228;SDS011;8222;51.462;12.630;2022-07-15T00:10:26;1.00;;;0.90;;
16228;SDS011;8222;51.462;12.630;2022-07-15T00:12:56;2.35;;;1.10;;
16228;SDS011;8222;51.462;12.630;2022-07-15T00:15:24;1.90;;;0.90;;
16228;SDS011;8222;51.462;12.630;2022-07-15T00:17:51;1.98;;;0.90;;
16228;SDS011;8222;51.462;12.630;2022-07-15T00:20:18;1.30;;;1.20;;
16228;SDS011;8222;51.462;12.630;2022-07-15T00:22:44;1.65;;;1.00;;
16228;SDS011;8222;51.462;12.630;2022-07-15T00:25:11;1.70;;;1.02;;
16228;SDS011;8222;51.462;12.630;2022-07-15T00:27:50;1.70;;;1.00;;
16228;SDS011;8222;51.462;12.630;2022-07-15T00:30:21;2.77;;;1.30;;
16228;SDS011;8222;51.462;12.630;2022-07-15T00:32:48;0.85;;;0.80;;
16228;SDS011;8222;51.462;12.630;2022-07-15T00:35:14;1.88;;;0.90;;
16228;SDS011;8222;51.462;12.630;2022-07-15T00:37:41;1.90;;;1.00;;
16228;SDS011;8222;51.462;12.630;2022-07-15T00:40:07;1.80;;;1.08;;
16228;SDS011;8222;51.462;12.630;2022-07-15T00:42:33;1.42;;;0.88;;
16228;SDS011;8222;51.462;12.630;2022-07-15T00:45:12;1.85;;;1.10;;
16228;SDS011;8222;51.462;12.630;2022-07-15T00:47:46;1.25;;;0.90;;
16228;SDS011;8222;51.462;12.630;2022-07-15T00:50:14;1.97;;;1.00;;
16228;SDS011;8222;51.462;12.630;2022-07-15T00:52:41;1.60;;;0.90;;
16228;SDS011;8222;51.462;12.630;2022-07-15T00:55:10;1.30;;;0.98;;
16228;SDS011;8222;51.462;12.630;2022-07-15T00:57:37;0.80;;;0.80;;
16228;SDS011;8222;51.462;12.630;2022-07-15T01:00:07;1.00;;;1.00;;
16228;SDS011;8222;51.462;12.630;2022-07-15T01:02:41;1.42;;;1.00;;
16228;SDS011;8222;51.462;12.630;2022-07-15T01:05:15;1.83;;;1.10;;
16228;SDS011;8222;51.462;12.630;2022-07-15T01:07:44;3.10;;;1.20;;
16228;SDS011;8222;51.462;12.630;2022-07-15T01:10:09;1.55;;;0.95;;
16228;SDS011;8222;51.462;12.630;2022-07-15T01:12:36;2.30;;;0.90;;
16228;SDS011;8222;51.462;12.630;2022-07-15T01:15:06;3.30;;;1.00;;
16228;SDS011;8222;51.462;12.630;2022-07-15T01:17:34;2.20;;;1.25;;
16228;SDS011;8222;51.462;12.630;2022-07-15T01:20:00;1.35;;;0.93;;
16228;SDS011;8222;51.462;12.630;2022-07-15T01:22:25;1.47;;;1.10;;
16228;SDS011;8222;51.462;12.630;2022-07-15T01:24:53;1.80;;;0.98;;
16228;SDS011;8222;51.462;12.630;2022-07-15T01:27:20;2.70;;;1.10;;
16228;SDS011;8222;51.462;12.630;2022-07-15T01:29:45;1.65;;;1.40;;
16228;SDS011;8222;51.462;12.630;2022-07-15T01:32:11;2.38;;;1.15;;
16228;SDS011;8222;51.462;12.630;2022-07-15T01:34:37;2.55;;;1.23;;
16228;SDS011;8222;51.462;12.630;2022-07-15T01:37:03;1.87;;;1.00;;
16228;SDS011;8222;51.462;12.630;2022-07-15T01:39:28;2.45;;;1.20;;
16228;SDS011;8222;51.462;12.630;2022-07-15T01:41:54;1.30;;;0.82;;
16228;SDS011;8222;51.462;12.630;2022-07-15T01:44:20;1.13;;;1.00;;
16228;SDS011;8222;51.462;12.630;2022-07-15T01:46:46;2.37;;;1.40;;
16228;SDS011;8222;51.462;12.630;2022-07-15T01:49:11;1.85;;;1.30;;
16228;SDS011;8222;51.462;12.630;2022-07-15T01:51:57;2.05;;;1.20;;
16228;SDS011;8222;51.462;12.630;2022-07-15T01:54:25;2.63;;;1.47;;
16228;SDS011;8222;51.462;12.630;2022-07-15T01:56:52;2.45;;;1.10;;
16228;SDS011;8222;51.462;12.630;2022-07-15T01:59:19;1.60;;;1.20;;
16228;SDS011;8222;51.462;12.630;2022-07-15T02:01:49;1.20;;;1.10;;
16228;SDS011;8222;51.462;12.630;2022-07-15T02:04:16;1.40;;;1.30;;
16228;SDS011;8222;51.462;12.630;2022-07-15T02:06:43;1.57;;;1.30;;
16228;SDS011;8222;51.462;12.630;2022-07-15T02:09:08;1.40;;;1.30;;
16228;SDS011;8222;51.462;12.630;2022-07-15T02:11:34;1.48;;;1.38;;
16228;SDS011;8222;51.462;12.630;2022-07-15T02:14:00;2.28;;;1.58;;
16228;SDS011;8222;51.462;12.630;2022-07-15T02:16:27;3.70;;;1.40;;
16228;SDS011;8222;51.462;12.630;2022-07-15T02:18:56;2.40;;;1.33;;
16228;SDS011;8222;51.462;12.630;2022-07-15T02:21:22;2.83;;;1.48;;
16228;SDS011;8222;51.462;12.630;2022-07-15T02:23:51;1.37;;;1.23;;
16228;SDS011;8222;51.462;12.630;2022-07-15T02:26:18;1.67;;;1.30;;
16228;SDS011;8222;51.462;12.630;2022-07-15T02:28:43;2.50;;;1.45;;
16228;SDS011;8222;51.462;12.630;2022-07-15T02:31:11;2.85;;;1.45;;
16228;SDS011;8222;51.462;12.630;2022-07-15T02:33:38;1.83;;;1.53;;
16228;SDS011;8222;51.462;12.630;2022-07-15T02:36:04;2.93;;;1.70;;
16228;SDS011;8222;51.462;12.630;2022-07-15T02:38:30;1.90;;;1.55;;
16228;SDS011;8222;51.462;12.630;2022-07-15T02:40:57;3.38;;;1.70;;
16228;SDS011;8222;51.462;12.630;2022-07-15T02:43:23;2.83;;;1.70;;
16228;SDS011;8222;51.462;12.630;2022-07-15T02:45:49;1.93;;;1.60;;
16228;SDS011;8222;51.462;12.630;2022-07-15T02:48:16;1.70;;;1.50;;
16228;SDS011;8222;51.462;12.630;2022-07-15T02:50:42;2.47;;;1.40;;
16228;SDS011;8222;51.462;12.630;2022-07-15T02:53:09;3.30;;;1.70;;
16228;SDS011;8222;51.462;12.630;2022-07-15T02:55:35;2.20;;;1.50;;
16228;SDS011;8222;51.462;12.630;2022-07-15T02:58:01;4.10;;;2.10;;
16228;SDS011;8222;51.462;12.630;2022-07-15T03:00:27;5.30;;;1.77;;
16228;SDS011;8222;51.462;12.630;2022-07-15T03:02:55;3.70;;;1.67;;
16228;SDS011;8222;51.462;12.630;2022-07-15T03:05:21;2.93;;;1.77;;
16228;SDS011;8222;51.462;12.630;2022-07-15T03:07:46;2.03;;;1.33;;
16228;SDS011;8222;51.462;12.630;2022-07-15T03:10:12;2.75;;;1.52;;
16228;SDS011;8222;51.462;12.630;2022-07-15T03:12:40;2.22;;;1.70;;
16228;SDS011;8222;51.462;12.630;2022-07-15T03:15:06;2.28;;;1.73;;
16228;SDS011;8222;51.462;12.630;2022-07-15T03:17:33;2.08;;;1.88;;
16228;SDS011;8222;51.462;12.630;2022-07-15T03:20:00;3.60;;;2.00;;
16228;SDS011;8222;51.462;12.630;2022-07-15T03:22:26;3.83;;;1.92;;
16228;SDS011;8222;51.462;12.630;2022-07-15T03:24:54;2.10;;;1.60;;
16228;SDS011;8222;51.462;12.630;2022-07-15T03:27:20;2.72;;;1.88;;
16228;SDS011;8222;51.462;12.630;2022-07-15T03:29:46;2.43;;;1.73;;
16228;SDS011;8222;51.462;12.630;2022-07-15T03:32:11;2.70;;;2.00;;
16228;SDS011;8222;51.462;12.630;2022-07-15T03:34:41;2.08;;;1.90;;
16228;SDS011;8222;51.462;12.630;2022-07-15T03:37:07;2.90;;;2.05;;
16228;SDS011;8222;51.462;12.630;2022-07-15T03:39:34;3.55;;;2.28;;
16228;SDS011;8222;51.462;12.630;2022-07-15T03:41:59;2.45;;;1.90;;
16228;SDS011;8222;51.462;12.630;2022-07-15T03:44:25;3.10;;;2.00;;
16228;SDS011;8222;51.462;12.630;2022-07-15T03:46:50;2.57;;;1.93;;
16228;SDS011;8222;51.462;12.630;2022-07-15T03:49:19;2.63;;;1.90;;
16228;SDS011;8222;51.462;12.630;2022-07-15T03:51:45;4.30;;;2.22;;
16228;SDS011;8222;51.462;12.630;2022-07-15T03:54:10;2.33;;;2.13;;
16228;SDS011;8222;51.462;12.630;2022-07-15T03:56:36;5.38;;;1.95;;
16228;SDS011;8222;51.462;12.630;2022-07-15T03:59:02;2.45;;;1.90;;
16228;SDS011;8222;51.462;12.630;2022-07-15T04:01:31;4.03;;;1.95;;
16228;SDS011;8222;51.462;12.630;2022-07-15T04:03:57;3.28;;;1.92;;
16228;SDS011;8222;51.462;12.630;2022-07-15T04:06:23;2.72;;;1.90;;
16228;SDS011;8222;51.462;12.630;2022-07-15T04:08:51;3.83;;;2.30;;
16228;SDS011;8222;51.462;12.630;2022-07-15T04:11:17;2.85;;;1.65;;
16228;SDS011;8222;51.462;12.630;2022-07-15T04:13:43;2.65;;;1.98;;
16228;SDS011;8222;51.462;12.630;2022-07-15T04:16:09;5.95;;;2.15;;
16228;SDS011;8222;51.462;12.630;2022-07-15T04:18:38;4.25;;;1.83;;
16228;SDS011;8222;51.462;12.630;2022-07-15T04:21:04;3.35;;;1.98;;
16228;SDS011;8222;51.462;12.630;2022-07-15T04:23:30;2.65;;;2.00;;
16228;SDS011;8222;51.462;12.630;2022-07-15T04:25:57;2.58;;;2.30;;
16228;SDS011;8222;51.462;12.630;2022-07-15T04:28:23;3.90;;;2.10;;
16228;SDS011;8222;51.462;12.630;2022-07-15T04:30:49;3.65;;;2.10;;
16228;SDS011;8222;51.462;12.630;2022-07-15T04:33:17;2.83;;;1.88;;
16228;SDS011;8222;51.462;12.630;2022-07-15T04:35:44;3.92;;;2.15;;
16228;SDS011;8222;51.462;12.630;2022-07-15T04:38:11;3.40;;;2.20;;
16228;SDS011;8222;51.462;12.630;2022-07-15T04:40:37;2.73;;;1.80;;
16228;SDS011;8222;51.462;12.630;2022-07-15T04:43:05;4.50;;;1.80;;
16228;SDS011;8222;51.462;12.630;2022-07-15T04:45:31;2.23;;;1.53;;
16228;SDS011;8222;51.462;12.630;2022-07-15T04:47:58;2.55;;;1.90;;
16228;SDS011;8222;51.462;12.630;2022-07-15T04:50:24;1.98;;;1.42;;
16228;SDS011;8222;51.462;12.630;2022-07-15T04:53:08;3.55;;;1.83;;
16228;SDS011;8222;51.462;12.630;2022-07-15T04:55:34;3.63;;;1.92;;
16228;SDS011;8222;51.462;12.630;2022-07-15T04:58:00;4.50;;;2.50;;
16228;SDS011;8222;51.462;12.630;2022-07-15T05:00:28;3.42;;;1.50;;
16228;SDS011;8222;51.462;12.630;2022-07-15T05:02:54;3.72;;;1.50;;
16228;SDS011;8222;51.462;12.630;2022-07-15T05:05:20;2.92;;;1.80;;
16228;SDS011;8222;51.462;12.630;2022-07-15T05:07:45;5.03;;;1.70;;
16228;SDS011;8222;51.462;12.630;2022-07-15T05:10:12;2.35;;;1.55;;
16228;SDS011;8222;51.462;12.630;2022-07-15T05:12:38;2.77;;;1.60;;
16228;SDS011;8222;51.462;12.630;2022-07-15T05:15:04;3.10;;;1.52;;
16228;SDS011;8222;51.462;12.630;2022-07-15T05:17:32;2.17;;;1.80;;
16228;SDS011;8222;51.462;12.630;2022-07-15T05:19:59;3.20;;;1.55;;
16228;SDS011;8222;51.462;12.630;2022-07-15T05:22:25;4.03;;;1.60;;
16228;SDS011;8222;51.462;12.630;2022-07-15T05:24:51;2.33;;;1.90;;
16228;SDS011;8222;51.462;12.630;2022-07-15T05:27:18;3.75;;;1.63;;
16228;SDS011;8222;51.462;12.630;2022-07-15T05:29:43;3.00;;;1.42;;
16228;SDS011;8222;51.462;12.630;2022-07-15T05:32:10;3.13;;;1.73;;
16228;SDS011;8222;51.462;12.630;2022-07-15T05:34:35;3.25;;;1.60;;
16228;SDS011;8222;51.462;12.630;2022-07-15T05:37:03;4.55;;;2.30;;
16228;SDS011;8222;51.462;12.630;2022-07-15T05:39:28;4.90;;;1.77;;
16228;SDS011;8222;51.462;12.630;2022-07-15T05:41:54;2.65;;;1.60;;
16228;SDS011;8222;51.462;12.630;2022-07-15T05:44:20;2.40;;;1.80;;
16228;SDS011;8222;51.462;12.630;2022-07-15T05:46:45;4.67;;;2.03;;
16228;SDS011;8222;51.462;12.630;2022-07-15T05:49:13;3.60;;;1.77;;
16228;SDS011;8222;51.462;12.630;2022-07-15T05:51:39;3.67;;;1.63;;
16228;SDS011;8222;51.462;12.630;2022-07-15T05:54:05;5.00;;;1.80;;
16228;SDS011;8222;51.462;12.630;2022-07-15T05:56:31;2.90;;;1.37;;
16228;SDS011;8222;51.462;12.630;2022-07-15T05:59:00;3.97;;;1.73;;
16228;SDS011;8222;51.462;12.630;2022-07-15T06:01:26;3.72;;;1.50;;
16228;SDS011;8222;51.462;12.630;2022-07-15T06:03:52;4.72;;;1.83;;
16228;SDS011;8222;51.462;12.630;2022-07-15T06:06:19;2.47;;;1.50;;
16228;SDS011;8222;51.462;12.630;2022-07-15T06:08:45;4.68;;;1.63;;
16228;SDS011;8222;51.462;12.630;2022-07-15T06:11:10;4.53;;;1.83;;
16228;SDS011;8222;51.462;12.630;2022-07-15T06:13:38;4.75;;;1.73;;
16228;SDS011;8222;51.462;12.630;2022-07-15T06:16:05;4.70;;;1.40;;
16228;SDS011;8222;51.462;12.630;2022-07-15T06:18:31;2.60;;;1.30;;
16228;SDS011;8222;51.462;12.630;2022-07-15T06:20:59;5.40;;;1.50;;
16228;SDS011;8222;51.462;12.630;2022-07-15T06:23:25;6.23;;;2.20;;
16228;SDS011;8222;51.462;12.630;2022-07-15T06:25:50;2.67;;;1.47;;
16228;SDS011;8222;51.462;12.630;2022-07-15T06:28:21;4.75;;;2.10;;
16228;SDS011;8222;51.462;12.630;2022-07-15T06:30:46;4.20;;;1.50;;
16228;SDS011;8222;51.462;12.630;2022-07-15T06:33:12;5.35;;;2.03;;
16228;SDS011;8222;51.462;12.630;2022-07-15T06:35:38;4.53;;;1.70;;
16228;SDS011;8222;51.462;12.630;2022-07-15T06:38:03;3.95;;;1.73;;
16228;SDS011;8222;51.462;12.630;2022-07-15T06:40:31;3.20;;;1.30;;
16228;SDS011;8222;51.462;12.630;2022-07-15T06:42:56;4.60;;;1.70;;
16228;SDS011;8222;51.462;12.630;2022-07-15T06:45:22;3.47;;;1.23;;
16228;SDS011;8222;51.462;12.630;2022-07-15T06:47:48;3.85;;;1.30;;
16228;SDS011;8222;51.462;12.630;2022-07-15T06:50:15;3.75;;;1.33;;
16228;SDS011;8222;51.462;12.630;2022-07-15T06:52:41;4.60;;;1.83;;
16228;SDS011;8222;51.462;12.630;2022-07-15T06:55:07;3.70;;;1.17;;
16228;SDS011;8222;51.462;12.630;2022-07-15T06:57:36;4.07;;;1.50;;
16228;SDS011;8222;51.462;12.630;2022-07-15T07:00:02;4.65;;;1.45;;
16228;SDS011;8222;51.462;12.630;2022-07-15T07:02:29;3.63;;;1.30;;
16228;SDS011;8222;51.462;12.630;2022-07-15T07:04:57;4.63;;;1.60;;
16228;SDS011;8222;51.462;12.630;2022-07-15T07:07:23;2.80;;;0.90;;
16228;SDS011;8222;51.462;12.630;2022-07-15T07:09:48;4.80;;;1.60;;
16228;SDS011;8222;51.462;12.630;2022-07-15T07:12:14;1.85;;;1.20;;
16228;SDS011;8222;51.462;12.630;2022-07-15T07:14:40;4.33;;;1.20;;
16228;SDS011;8222;51.462;12.630;2022-07-15T07:17:05;1.67;;;0.90;;
16228;SDS011;8222;51.462;12.630;2022-07-15T07:19:31;2.63;;;1.02;;
16228;SDS011;8222;51.462;12.630;2022-07-15T07:21:58;2.75;;;1.33;;
16228;SDS011;8222;51.462;12.630;2022-07-15T07:24:24;2.03;;;1.13;;
16228;SDS011;8222;51.462;12.630;2022-07-15T07:26:50;3.58;;;1.10;;
16228;SDS011;8222;51.462;12.630;2022-07-15T07:29:15;2.83;;;1.00;;
16228;SDS011;8222;51.462;12.630;2022-07-15T07:31:48;1.83;;;0.80;;
16228;SDS011;8222;51.462;12.630;2022-07-15T07:34:14;2.88;;;0.73;;
16228;SDS011;8222;51.462;12.630;2022-07-15T07:36:41;3.13;;;1.00;;
16228;SDS011;8222;51.462;12.630;2022-07-15T07:39:06;1.85;;;0.70;;
16228;SDS011;8222;51.462;12.630;2022-07-15T07:41:32;2.83;;;0.60;;
16228;SDS011;8222;51.462;12.630;2022-07-15T07:43:59;1.70;;;0.77;;
16228;SDS011;8222;51.462;12.630;2022-07-15T07:46:25;1.50;;;0.85;;
16228;SDS011;8222;51.462;12.630;2022-07-15T07:48:51;2.10;;;0.60;;
16228;SDS011;8222;51.462;12.630;2022-07-15T07:51:18;1.70;;;0.63;;
16228;SDS011;8222;51.462;12.630;2022-07-15T07:53:44;1.77;;;0.87;;
16228;SDS011;8222;51.462;12.630;2022-07-15T07:56:11;1.88;;;0.95;;
16228;SDS011;8222;51.462;12.630;2022-07-15T07:58:37;2.78;;;0.88;;
16228;SDS011;8222;51.462;12.630;2022-07-15T08:01:04;1.77;;;0.70;;
16228;SDS011;8222;51.462;12.630;2022-07-15T08:03:31;1.33;;;0.60;;
16228;SDS011;8222;51.462;12.630;2022-07-15T08:05:57;1.35;;;0.90;;
16228;SDS011;8222;51.462;12.630;2022-07-15T08:08:23;2.05;;;1.00;;
16228;SDS011;8222;51.462;12.630;2022-07-15T08:10:53;1.50;;;0.80;;
16228;SDS011;8222;51.462;12.630;2022-07-15T08:13:20;1.63;;;0.60;;
16228;SDS011;8222;51.462;12.630;2022-07-15T08:15:49;2.15;;;1.00;;
16228;SDS011;8222;51.462;12.630;2022-07-15T08:18:16;2.03;;;0.60;;
16228;SDS011;8222;51.462;12.630;2022-07-15T08:20:42;2.40;;;1.10;;
16228;SDS011;8222;51.462;12.630;2022-07-15T08:23:09;2.20;;;0.80;;
16228;SDS011;8222;51.462;12.630;2022-07-15T08:25:36;2.60;;;0.70;;
16228;SDS011;8222;51.462;12.630;2022-07-15T08:28:03;2.60;;;0.90;;
16228;SDS011;8222;51.462;12.630;2022-07-15T08:30:32;2.17;;;0.85;;
16228;SDS011;8222;51.462;12.630;2022-07-15T08:33:00;2.00;;;1.05;;
16228;SDS011;8222;51.462;12.630;2022-07-15T08:35:27;1.20;;;0.70;;
16228;SDS011;8222;51.462;12.630;2022-07-15T08:37:53;1.67;;;1.00;;
16228;SDS011;8222;51.462;12.630;2022-07-15T08:40:19;3.15;;;1.20;;
16228;SDS011;8222;51.462;12.630;2022-07-15T08:42:45;2.97;;;0.93;;
16228;SDS011;8222;51.462;12.630;2022-07-15T08:45:12;2.75;;;1.05;;
16228;SDS011;8222;51.462;12.630;2022-07-15T08:47:40;2.17;;;1.08;;
16228;SDS011;8222;51.462;12.630;2022-07-15T08:50:12;2.70;;;1.30;;
16228;SDS011;8222;51.462;12.630;2022-07-15T08:52:40;1.97;;;1.20;;
16228;SDS011;8222;51.462;12.630;2022-07-15T08:55:08;2.30;;;1.20;;
16228;SDS011;8222;51.462;12.630;2022-07-15T08:57:34;1.58;;;0.98;;
16228;SDS011;8222;51.462;12.630;2022-07-15T09:00:01;2.20;;;1.00;;
16228;SDS011;8222;51.462;12.630;2022-07-15T09:02:34;3.25;;;0.80;;
16228;SDS011;8222;51.462;12.630;2022-07-15T09:08:04;3.95;;;1.05;;
16228;SDS011;8222;51.462;12.630;2022-07-15T09:16:04;1.92;;;0.93;;
16228;SDS011;8222;51.462;12.630;2022-07-15T09:18:32;3.33;;;1.10;;
16228;SDS011;8222;51.462;12.630;2022-07-15T09:21:02;2.67;;;1.08;;
16228;SDS011;8222;51.462;12.630;2022-07-15T09:23:38;4.10;;;1.45;;
16228;SDS011;8222;51.462;12.630;2022-07-15T09:28:48;1.33;;;0.70;;
16228;SDS011;8222;51.462;12.630;2022-07-15T09:31:26;2.85;;;0.98;;
16228;SDS011;8222;51.462;12.630;2022-07-15T09:34:17;2.05;;;0.95;;
16228;SDS011;8222;51.462;12.630;2022-07-15T09:36:50;2.07;;;0.97;;
16228;SDS011;8222;51.462;12.630;2022-07-15T09:39:19;3.60;;;1.10;;
16228;SDS011;8222;51.462;12.630;2022-07-15T09:41:46;2.17;;;0.90;;
16228;SDS011;8222;51.462;12.630;2022-07-15T09:44:21;2.40;;;1.15;;
16228;SDS011;8222;51.462;12.630;2022-07-15T09:46:49;2.87;;;1.00;;
16228;SDS011;8222;51.462;12.630;2022-07-15T09:52:08;1.45;;;0.80;;
16228;SDS011;8222;51.462;12.630;2022-07-15T09:57:07;1.85;;;1.10;;
16228;SDS011;8222;51.462;12.630;2022-07-15T09:59:40;1.77;;;0.90;;
16228;SDS011;8222;51.462;12.630;2022-07-15T10:02:07;3.45;;;1.00;;
16228;SDS011;8222;51.462;12.630;2022-07-15T10:04:34;2.67;;;1.07;;
16228;SDS011;8222;51.462;12.630;2022-07-15T10:06:59;1.55;;;0.90;;
16228;SDS011;8222;51.462;12.630;2022-07-15T10:09:28;3.20;;;1.15;;
16228;SDS011;8222;51.462;12.630;2022-07-15T10:12:18;3.05;;;0.88;;
16228;SDS011;8222;51.462;12.630;2022-07-15T10:30:39;1.60;;;0.80;;
16228;SDS011;8222;51.462;12.630;2022-07-15T10:35:41;1.73;;;0.93;;
16228;SDS011;8222;51.462;12.630;2022-07-15T10:41:06;1.00;;;0.68;;
16228;SDS011;8222;51.462;12.630;2022-07-15T10:43:45;3.90;;;1.40;;
16228;SDS011;8222;51.462;12.630;2022-07-15T10:46:18;2.55;;;0.90;;
16228;SDS011;8222;51.462;12.630;2022-07-15T10:54:01;2.40;;;0.85;;
16228;SDS011;8222;51.462;12.630;2022-07-15T10:56:32;2.70;;;0.77;;
16228;SDS011;8222;51.462;12.630;2022-07-15T10:59:12;1.33;;;0.63;;
16228;SDS011;8222;51.462;12.630;2022-07-15T11:01:45;2.42;;;0.80;;
16228;SDS011;8222;51.462;12.630;2022-07-15T11:22:33;1.93;;;0.90;;
16228;SDS011;8222;51.462;12.630;2022-07-15T11:24:59;2.17;;;0.77;;
16228;SDS011;8222;51.462;12.630;2022-07-15T11:27:25;2.03;;;0.83;;
16228;SDS011;8222;51.462;12.630;2022-07-15T11:29:52;1.88;;;0.70;;
16228;SDS011;8222;51.462;12.630;2022-07-15T11:32:20;2.78;;;0.70;;
16228;SDS011;8222;51.462;12.630;2022-07-15T11:34:48;1.52;;;0.60;;
16228;SDS011;8222;51.462;12.630;2022-07-15T11:37:15;1.25;;;0.75;;
16228;SDS011;8222;51.462;12.630;2022-07-15T11:39:48;2.72;;;0.93;;
16228;SDS011;8222;51.462;12.630;2022-07-15T11:42:19;1.40;;;0.70;;
16228;SDS011;8222;51.462;12.630;2022-07-15T11:45:06;2.22;;;0.80;;
16228;SDS011;8222;51.462;12.630;2022-07-15T11:47:33;1.52;;;0.68;;
16228;SDS011;8222;51.462;12.630;2022-07-15T11:50:00;2.10;;;0.90;;
16228;SDS011;8222;51.462;12.630;2022-07-15T11:52:28;1.67;;;0.80;;
16228;SDS011;8222;51.462;12.630;2022-07-15T11:54:58;2.42;;;0.90;;
16228;SDS011;8222;51.462;12.630;2022-07-15T11:57:23;1.93;;;1.00;;
16228;SDS011;8222;51.462;12.630;2022-07-15T11:59:51;2.40;;;0.70;;
16228;SDS011;8222;51.462;12.630;2022-07-15T12:02:24;1.83;;;0.70;;
16228;SDS011;8222;51.462;12.630;2022-07-15T12:04:51;1.50;;;0.77;;
16228;SDS011;8222;51.462;12.630;2022-07-15T12:07:34;1.70;;;0.83;;
16228;SDS011;8222;51.462;12.630;2022-07-15T12:10:07;1.83;;;1.00;;
16228;SDS011;8222;51.462;12.630;2022-07-15T12:12:33;2.20;;;0.80;;
16228;SDS011;8222;51.462;12.630;2022-07-15T12:15:00;1.67;;;0.90;;
16228;SDS011;8222;51.462;12.630;2022-07-15T12:17:26;2.63;;;1.10;;
16228;SDS011;8222;51.462;12.630;2022-07-15T12:19:52;29.85;;;22.30;;
16228;SDS011;8222;51.462;12.630;2022-07-15T12:22:23;5.63;;;4.63;;
16228;SDS011;8222;51.462;12.630;2022-07-15T12:24:50;6.80;;;6.07;;
16228;SDS011;8222;51.462;12.630;2022-07-15T12:27:17;7.47;;;6.87;;
16228;SDS011;8222;51.462;12.630;2022-07-15T12:29:43;9.52;;;8.75;;
16228;SDS011;8222;51.462;12.630;2022-07-15T12:32:10;3.15;;;2.25;;
16228;SDS011;8222;51.462;12.630;2022-07-15T12:34:50;5.13;;;3.28;;
16228;SDS011;8222;51.462;12.630;2022-07-15T12:37:18;2.65;;;1.25;;
16228;SDS011;8222;51.462;12.630;2022-07-15T12:42:31;3.05;;;1.67;;
16228;SDS011;8222;51.462;12.630;2022-07-15T12:45:18;4.18;;;3.78;;
16228;SDS011;8222;51.462;12.630;2022-07-15T12:52:59;2.90;;;1.33;;
16228;SDS011;8222;51.462;12.630;2022-07-15T12:55:30;3.57;;;2.70;;
16228;SDS011;8222;51.462;12.630;2022-07-15T12:58:10;6.13;;;4.50;;
16228;SDS011;8222;51.462;12.630;2022-07-15T13:00:38;2.55;;;1.25;;
16228;SDS011;8222;51.462;12.630;2022-07-15T13:03:08;2.30;;;1.17;;
16228;SDS011;8222;51.462;12.630;2022-07-15T13:08:12;3.30;;;2.10;;
16228;SDS011;8222;51.462;12.630;2022-07-15T13:10:42;9.02;;;6.80;;
16228;SDS011;8222;51.462;12.630;2022-07-15T13:13:10;3.25;;;1.95;;
16228;SDS011;8222;51.462;12.630;2022-07-15T13:15:38;3.50;;;1.40;;
16228;SDS011;8222;51.462;12.630;2022-07-15T13:18:04;6.33;;;5.73;;
16228;SDS011;8222;51.462;12.630;2022-07-15T13:20:32;2.60;;;1.73;;
16228;SDS011;8222;51.462;12.630;2022-07-15T13:22:58;3.10;;;1.50;;
16228;SDS011;8222;51.462;12.630;2022-07-15T13:25:27;2.55;;;1.58;;
16228;SDS011;8222;51.462;12.630;2022-07-15T13:27:54;1.75;;;0.75;;
16228;SDS011;8222;51.462;12.630;2022-07-15T13:30:21;2.13;;;1.10;;
16228;SDS011;8222;51.462;12.630;2022-07-15T13:32:48;0.88;;;0.70;;
16228;SDS011;8222;51.462;12.630;2022-07-15T13:35:14;2.40;;;0.90;;
16228;SDS011;8222;51.462;12.630;2022-07-15T13:37:41;3.47;;;1.10;;
16228;SDS011;8222;51.462;12.630;2022-07-15T13:40:08;2.28;;;0.93;;
16228;SDS011;8222;51.462;12.630;2022-07-15T13:42:36;2.75;;;0.90;;
16228;SDS011;8222;51.462;12.630;2022-07-15T13:45:03;1.73;;;1.17;;
16228;SDS011;8222;51.462;12.630;2022-07-15T13:47:29;1.77;;;1.02;;
16228;SDS011;8222;51.462;12.630;2022-07-15T13:49:57;1.70;;;1.02;;
16228;SDS011;8222;51.462;12.630;2022-07-15T13:52:45;2.42;;;0.98;;
16228;SDS011;8222;51.462;12.630;2022-07-15T13:55:13;2.25;;;1.10;;
16228;SDS011;8222;51.462;12.630;2022-07-15T13:57:40;1.33;;;0.70;;
16228;SDS011;8222;51.462;12.630;2022-07-15T14:00:08;1.27;;;0.90;;
16228;SDS011;8222;51.462;12.630;2022-07-15T14:02:39;3.58;;;1.30;;
16228;SDS011;8222;51.462;12.630;2022-07-15T14:05:07;1.60;;;1.08;;
16228;SDS011;8222;51.462;12.630;2022-07-15T14:07:34;1.58;;;1.33;;
16228;SDS011;8222;51.462;12.630;2022-07-15T14:10:00;2.00;;;0.97;;
16228;SDS011;8222;51.462;12.630;2022-07-15T14:12:28;1.33;;;1.00;;
16228;SDS011;8222;51.462;12.630;2022-07-15T14:14:53;1.30;;;1.00;;
16228;SDS011;8222;51.462;12.630;2022-07-15T14:17:19;3.40;;;1.20;;
16228;SDS011;8222;51.462;12.630;2022-07-15T14:19:45;2.10;;;1.10;;
16228;SDS011;8222;51.462;12.630;2022-07-15T14:22:10;1.73;;;1.40;;
16228;SDS011;8222;51.462;12.630;2022-07-15T14:24:36;2.20;;;1.17;;
16228;SDS011;8222;51.462;12.630;2022-07-15T14:27:02;1.98;;;1.00;;
16228;SDS011;8222;51.462;12.630;2022-07-15T14:29:30;2.78;;;1.23;;
16228;SDS011;8222;51.462;12.630;2022-07-15T14:31:56;2.65;;;1.17;;
16228;SDS011;8222;51.462;12.630;2022-07-15T14:34:21;1.60;;;1.00;;
16228;SDS011;8222;51.462;12.630;2022-07-15T14:36:47;2.00;;;1.23;;
16228;SDS011;8222;51.462;12.630;2022-07-15T14:39:15;2.40;;;1.10;;
16228;SDS011;8222;51.462;12.630;2022-07-15T14:41:41;1.23;;;1.13;;
16228;SDS011;8222;51.462;12.630;2022-07-15T14:44:07;2.03;;;1.10;;
16228;SDS011;8222;51.462;12.630;2022-07-15T14:46:33;1.40;;;1.13;;
16228;SDS011;8222;51.462;12.630;2022-07-15T14:49:01;1.30;;;1.20;;
16228;SDS011;8222;51.462;12.630;2022-07-15T14:51:26;106.20;;;85.68;;
16228;SDS011;8222;51.462;12.630;2022-07-15T14:53:52;140.27;;;108.80;;
16228;SDS011;8222;51.462;12.630;2022-07-15T14:56:17;105.03;;;94.63;;
16228;SDS011;8222;51.462;12.630;2022-07-15T14:58:43;3.77;;;1.83;;
16228;SDS011;8222;51.462;12.630;2022-07-15T15:01:09;1.70;;;1.58;;
16228;SDS011;8222;51.462;12.630;2022-07-15T15:03:39;2.40;;;1.67;;
16228;SDS011;8222;51.462;12.630;2022-07-15T15:06:05;2.28;;;1.30;;
16228;SDS011;8222;51.462;12.630;2022-07-15T15:08:31;1.35;;;1.02;;
16228;SDS011;8222;51.462;12.630;2022-07-15T15:10:58;2.90;;;1.85;;
16228;SDS011;8222;51.462;12.630;2022-07-15T15:13:24;2.33;;;1.60;;
16228;SDS011;8222;51.462;12.630;2022-07-15T15:15:49;1.80;;;1.27;;
16228;SDS011;8222;51.462;12.630;2022-07-15T15:18:15;4.50;;;1.30;;
16228;SDS011;8222;51.462;12.630;2022-07-15T15:20:41;2.88;;;1.20;;
16228;SDS011;8222;51.462;12.630;2022-07-15T15:23:07;1.80;;;0.98;;
16228;SDS011;8222;51.462;12.630;2022-07-15T15:25:32;2.20;;;1.27;;
16228;SDS011;8222;51.462;12.630;2022-07-15T15:28:18;4.18;;;1.33;;
16228;SDS011;8222;51.462;12.630;2022-07-15T15:30:44;1.80;;;1.30;;
16228;SDS011;8222;51.462;12.630;2022-07-15T15:33:11;3.58;;;1.83;;
16228;SDS011;8222;51.462;12.630;2022-07-15T15:35:37;4.38;;;1.40;;
16228;SDS011;8222;51.462;12.630;2022-07-15T15:38:03;2.72;;;1.40;;
16228;SDS011;8222;51.462;12.630;2022-07-15T15:40:31;3.72;;;1.83;;
16228;SDS011;8222;51.462;12.630;2022-07-15T15:42:56;1.33;;;1.23;;
16228;SDS011;8222;51.462;12.630;2022-07-15T15:45:22;2.03;;;1.20;;
16228;SDS011;8222;51.462;12.630;2022-07-15T15:47:49;1.27;;;1.10;;
16228;SDS011;8222;51.462;12.630;2022-07-15T15:50:14;2.80;;;1.30;;
16228;SDS011;8222;51.462;12.630;2022-07-15T15:52:42;2.88;;;1.20;;
16228;SDS011;8222;51.462;12.630;2022-07-15T15:55:08;2.60;;;1.17;;
16228;SDS011;8222;51.462;12.630;2022-07-15T15:57:34;1.83;;;1.27;;
16228;SDS011;8222;51.462;12.630;2022-07-15T16:00:01;3.05;;;1.50;;
16228;SDS011;8222;51.462;12.630;2022-07-15T16:02:29;2.75;;;1.20;;